sensor_id;sensor_type;location;lat;lon;timestamp;pressure;altitude;pressure_sealevel;temperature;humidity
28921;BME280;16035;53.594;9.952;2023-10-31T00:00:53;99311.00;;;13.62;76.18
28921;BME280;16035;53.594;9.952;2023-10-31T00:02:53;99304.25;;;13.59;76.50
28921;BME280;16035;53.594;9.952;2023-10-31T00:04:53;99290.44;;;13.64;77.17
28921;BME280;16035;53.594;9.952;2023-10-31T00:06:54;99285.50;;;13.67;76.46
28921;BME280;16035;53.594;9.952;2023-10-31T00:08:54;99290.81;;;13.72;76.24
28921;BME280;16035;53.594;9.952;2023-10-31T00:10:55;99286.75;;;13.69;76.59
28921;BME280;16035;53.594;9.952;2023-10-31T00:12:55;99280.50;;;13.69;76.99
28921;BME280;16035;53.594;9.952;2023-10-31T00:14:56;99280.19;;;13.70;77.02
28921;BME280;16035;53.594;9.952;2023-10-31T00:16:56;99280.06;;;13.75;77.18
28921;BME280;16035;53.594;9.952;2023-10-31T00:18:56;99278.41;;;13.74;76.83
28921;BME280;16035;53.594;9.952;2023-10-31T00:20:57;99277.63;;;13.74;77.09
28921;BME280;16035;53.594;9.952;2023-10-31T00:22:57;99278.94;;;13.76;77.38
28921;BME280;16035;53.594;9.952;2023-10-31T00:24:57;99290.03;;;13.80;76.83
28921;BME280;16035;53.594;9.952;2023-10-31T00:26:58;99286.63;;;13.83;76.75
28921;BME280;16035;53.594;9.952;2023-10-31T00:28:59;99282.78;;;13.84;76.92
28921;BME280;16035;53.594;9.952;2023-10-31T00:30:59;99286.00;;;13.86;76.72
28921;BME280;16035;53.594;9.952;2023-10-31T00:33:01;99287.31;;;13.88;76.67
28921;BME280;16035;53.594;9.952;2023-10-31T00:35:01;99291.16;;;13.87;76.57
28921;BME280;16035;53.594;9.952;2023-10-31T00:37:01;99277.31;;;13.84;77.02
28921;BME280;16035;53.594;9.952;2023-10-31T00:39:02;99282.78;;;13.84;77.17
28921;BME280;16035;53.594;9.952;2023-10-31T00:41:02;99279.75;;;13.85;76.99
28921;BME280;16035;53.594;9.952;2023-10-31T00:43:03;99286.34;;;13.84;76.93
28921;BME280;16035;53.594;9.952;2023-10-31T00:45:03;99274.59;;;13.84;76.90
28921;BME280;16035;53.594;9.952;2023-10-31T00:47:04;99280.38;;;13.82;77.26
28921;BME280;16035;53.594;9.952;2023-10-31T00:49:05;99275.41;;;13.84;77.09
28921;BME280;16035;53.594;9.952;2023-10-31T00:51:05;99278.94;;;13.85;76.66
28921;BME280;16035;53.594;9.952;2023-10-31T00:53:07;99275.88;;;13.86;76.77
28921;BME280;16035;53.594;9.952;2023-10-31T00:55:08;99268.81;;;13.85;77.09
28921;BME280;16035;53.594;9.952;2023-10-31T00:57:08;99269.63;;;13.86;77.01
28921;BME280;16035;53.594;9.952;2023-10-31T00:59:08;99261.75;;;13.84;76.99
28921;BME280;16035;53.594;9.952;2023-10-31T01:01:08;99257.56;;;13.87;77.29
28921;BME280;16035;53.594;9.952;2023-10-31T01:03:09;99252.44;;;13.85;77.11
28921;BME280;16035;53.594;9.952;2023-10-31T01:05:10;99252.75;;;13.84;77.33
28921;BME280;16035;53.594;9.952;2023-10-31T01:07:11;99245.69;;;13.83;77.15
28921;BME280;16035;53.594;9.952;2023-10-31T01:09:12;99255.81;;;13.82;76.93
28921;BME280;16035;53.594;9.952;2023-10-31T01:11:13;99252.09;;;13.78;77.04
28921;BME280;16035;53.594;9.952;2023-10-31T01:13:13;99251.63;;;13.76;77.13
28921;BME280;16035;53.594;9.952;2023-10-31T01:15:13;99247.44;;;13.79;77.10
28921;BME280;16035;53.594;9.952;2023-10-31T01:17:14;99247.13;;;13.80;77.05
28921;BME280;16035;53.594;9.952;2023-10-31T01:19:14;99239.75;;;13.81;77.16
28921;BME280;16035;53.594;9.952;2023-10-31T01:21:15;99240.03;;;13.79;77.30
28921;BME280;16035;53.594;9.952;2023-10-31T01:23:15;99246.63;;;13.78;77.18
28921;BME280;16035;53.594;9.952;2023-10-31T01:25:15;99247.13;;;13.80;77.19
28921;BME280;16035;53.594;9.952;2023-10-31T01:27:16;99236.22;;;13.80;77.25
28921;BME280;16035;53.594;9.952;2023-10-31T01:29:16;99233.16;;;13.82;77.12
28921;BME280;16035;53.594;9.952;2023-10-31T01:31:16;99238.16;;;13.80;77.58
28921;BME280;16035;53.594;9.952;2023-10-31T01:33:16;99241.19;;;13.78;77.04
28921;BME280;16035;53.594;9.952;2023-10-31T01:35:17;99238.78;;;13.77;77.56
28921;BME280;16035;53.594;9.952;2023-10-31T01:37:17;99237.31;;;13.79;77.27
28921;BME280;16035;53.594;9.952;2023-10-31T01:39:19;99242.66;;;13.84;77.21
28921;BME280;16035;53.594;9.952;2023-10-31T01:41:19;99235.25;;;13.85;77.26
28921;BME280;16035;53.594;9.952;2023-10-31T01:43:33;99239.91;;;13.84;77.51
28921;BME280;16035;53.594;9.952;2023-10-31T01:45:33;99235.56;;;13.83;77.66
28921;BME280;16035;53.594;9.952;2023-10-31T01:47:34;99229.94;;;13.80;77.06
28921;BME280;16035;53.594;9.952;2023-10-31T01:49:36;99231.84;;;13.79;77.39
28921;BME280;16035;53.594;9.952;2023-10-31T01:51:36;99225.28;;;13.80;77.05
28921;BME280;16035;53.594;9.952;2023-10-31T01:53:37;99217.91;;;13.81;77.60
28921;BME280;16035;53.594;9.952;2023-10-31T01:55:37;99221.09;;;13.83;77.50
28921;BME280;16035;53.594;9.952;2023-10-31T01:57:37;99219.69;;;13.85;77.15
28921;BME280;16035;53.594;9.952;2023-10-31T01:59:39;99216.16;;;13.85;77.08
28921;BME280;16035;53.594;9.952;2023-10-31T02:01:39;99212.91;;;13.83;77.28
28921;BME280;16035;53.594;9.952;2023-10-31T02:03:40;99200.38;;;13.82;77.62
28921;BME280;16035;53.594;9.952;2023-10-31T02:05:41;99202.31;;;13.81;77.67
28921;BME280;16035;53.594;9.952;2023-10-31T02:07:44;99194.47;;;13.80;77.67
28921;BME280;16035;53.594;9.952;2023-10-31T02:09:45;99188.16;;;13.79;77.61
28921;BME280;16035;53.594;9.952;2023-10-31T02:11:45;99186.28;;;13.80;78.27
28921;BME280;16035;53.594;9.952;2023-10-31T02:13:46;99174.69;;;13.83;77.57
28921;BME280;16035;53.594;9.952;2023-10-31T02:15:46;99172.28;;;13.81;77.64
28921;BME280;16035;53.594;9.952;2023-10-31T02:17:46;99182.41;;;13.81;77.43
28921;BME280;16035;53.594;9.952;2023-10-31T02:19:47;99167.28;;;13.83;77.60
28921;BME280;16035;53.594;9.952;2023-10-31T02:21:47;99165.06;;;13.85;77.72
28921;BME280;16035;53.594;9.952;2023-10-31T02:24:02;99169.06;;;13.88;77.89
28921;BME280;16035;53.594;9.952;2023-10-31T02:26:03;99166.84;;;13.90;77.77
28921;BME280;16035;53.594;9.952;2023-10-31T02:28:04;99159.28;;;13.87;77.35
28921;BME280;16035;53.594;9.952;2023-10-31T02:30:04;99154.13;;;13.85;77.68
28921;BME280;16035;53.594;9.952;2023-10-31T02:32:05;99152.03;;;13.82;77.26
28921;BME280;16035;53.594;9.952;2023-10-31T02:34:05;99153.34;;;13.76;77.70
28921;BME280;16035;53.594;9.952;2023-10-31T02:36:06;99144.47;;;13.79;77.90
28921;BME280;16035;53.594;9.952;2023-10-31T02:38:06;99141.44;;;13.81;78.00
28921;BME280;16035;53.594;9.952;2023-10-31T02:40:07;99138.41;;;13.82;78.18
28921;BME280;16035;53.594;9.952;2023-10-31T02:42:08;99138.41;;;13.82;78.23
28921;BME280;16035;53.594;9.952;2023-10-31T02:44:09;99145.16;;;13.85;77.74
28921;BME280;16035;53.594;9.952;2023-10-31T02:46:09;99142.72;;;13.83;77.89
28921;BME280;16035;53.594;9.952;2023-10-31T02:48:12;99141.91;;;13.83;77.94
28921;BME280;16035;53.594;9.952;2023-10-31T02:50:12;99136.78;;;13.81;78.26
28921;BME280;16035;53.594;9.952;2023-10-31T02:52:13;99135.31;;;13.84;77.91
28921;BME280;16035;53.594;9.952;2023-10-31T02:54:13;99126.50;;;13.87;77.99
28921;BME280;16035;53.594;9.952;2023-10-31T02:56:13;99125.72;;;13.86;78.21
28921;BME280;16035;53.594;9.952;2023-10-31T02:58:14;99121.53;;;13.89;78.10
28921;BME280;16035;53.594;9.952;2023-10-31T03:00:14;99125.06;;;13.89;78.07
28921;BME280;16035;53.594;9.952;2023-10-31T03:02:15;99124.56;;;13.87;77.89
28921;BME280;16035;53.594;9.952;2023-10-31T03:04:15;99121.03;;;13.87;78.22
28921;BME280;16035;53.594;9.952;2023-10-31T03:06:16;99121.53;;;13.89;78.42
28921;BME280;16035;53.594;9.952;2023-10-31T03:08:16;99116.88;;;13.89;78.36
28921;BME280;16035;53.594;9.952;2023-10-31T03:10:20;99109.16;;;13.91;78.44
28921;BME280;16035;53.594;9.952;2023-10-31T03:12:21;99113.47;;;13.93;78.19
28921;BME280;16035;53.594;9.952;2023-10-31T03:14:21;99112.22;;;13.90;77.76
28921;BME280;16035;53.594;9.952;2023-10-31T03:16:22;99113.81;;;13.91;78.29
28921;BME280;16035;53.594;9.952;2023-10-31T03:18:22;99112.38;;;13.94;77.98
28921;BME280;16035;53.594;9.952;2023-10-31T03:20:23;99111.41;;;13.89;78.01
28921;BME280;16035;53.594;9.952;2023-10-31T03:22:23;99110.13;;;13.87;78.59
28921;BME280;16035;53.594;9.952;2023-10-31T03:24:24;99100.34;;;13.86;78.61
28921;BME280;16035;53.594;9.952;2023-10-31T03:26:24;99106.25;;;13.88;78.38
28921;BME280;16035;53.594;9.952;2023-10-31T03:28:24;99100.50;;;13.89;78.54
28921;BME280;16035;53.594;9.952;2023-10-31T03:30:25;99100.16;;;13.91;78.49
28921;BME280;16035;53.594;9.952;2023-10-31T03:32:25;99102.88;;;13.91;78.41
28921;BME280;16035;53.594;9.952;2023-10-31T03:34:26;99095.84;;;13.90;78.38
28921;BME280;16035;53.594;9.952;2023-10-31T03:36:27;99097.09;;;13.93;78.44
28921;BME280;16035;53.594;9.952;2023-10-31T03:38:27;99091.97;;;13.91;78.53
28921;BME280;16035;53.594;9.952;2023-10-31T03:40:27;99092.94;;;13.86;78.84
28921;BME280;16035;53.594;9.952;2023-10-31T03:42:28;99092.59;;;13.88;78.56
28921;BME280;16035;53.594;9.952;2023-10-31T03:44:28;99094.69;;;13.91;78.59
28921;BME280;16035;53.594;9.952;2023-10-31T03:46:29;99090.38;;;13.90;78.71
28921;BME280;16035;53.594;9.952;2023-10-31T03:48:29;99092.59;;;13.88;78.65
28921;BME280;16035;53.594;9.952;2023-10-31T03:50:29;99087.47;;;13.86;78.80
28921;BME280;16035;53.594;9.952;2023-10-31T03:52:30;99083.63;;;13.87;78.87
28921;BME280;16035;53.594;9.952;2023-10-31T03:54:30;99083.31;;;13.89;78.70
28921;BME280;16035;53.594;9.952;2023-10-31T03:56:30;99086.50;;;13.91;78.60
28921;BME280;16035;53.594;9.952;2023-10-31T03:58:31;99082.66;;;13.92;78.85
28921;BME280;16035;53.594;9.952;2023-10-31T04:00:31;99080.72;;;13.93;78.70
28921;BME280;16035;53.594;9.952;2023-10-31T04:02:31;99085.06;;;13.94;79.10
28921;BME280;16035;53.594;9.952;2023-10-31T04:04:32;99079.59;;;13.94;78.86
28921;BME280;16035;53.594;9.952;2023-10-31T04:06:32;99065.78;;;13.90;78.98
28921;BME280;16035;53.594;9.952;2023-10-31T04:08:32;99070.13;;;13.91;78.98
28921;BME280;16035;53.594;9.952;2023-10-31T04:10:33;99069.47;;;13.94;79.00
28921;BME280;16035;53.594;9.952;2023-10-31T04:12:33;99070.28;;;13.95;78.96
28921;BME280;16035;53.594;9.952;2023-10-31T04:14:34;99069.94;;;13.96;78.80
28921;BME280;16035;53.594;9.952;2023-10-31T04:16:39;99060.63;;;13.97;79.01
28921;BME280;16035;53.594;9.952;2023-10-31T04:18:39;99062.72;;;14.00;78.86
28921;BME280;16035;53.594;9.952;2023-10-31T04:20:39;99063.50;;;14.01;79.08
28921;BME280;16035;53.594;9.952;2023-10-31T04:22:40;99062.72;;;14.00;78.99
28921;BME280;16035;53.594;9.952;2023-10-31T04:24:41;99058.38;;;13.99;79.03
28921;BME280;16035;53.594;9.952;2023-10-31T04:26:41;99068.19;;;14.00;78.86
28921;BME280;16035;53.594;9.952;2023-10-31T04:28:41;99057.25;;;14.00;79.19
28921;BME280;16035;53.594;9.952;2023-10-31T04:30:42;99063.06;;;13.99;78.98
28921;BME280;16035;53.594;9.952;2023-10-31T04:32:42;99067.72;;;13.98;78.94
28921;BME280;16035;53.594;9.952;2023-10-31T04:34:42;99068.66;;;14.02;79.05
28921;BME280;16035;53.594;9.952;2023-10-31T04:36:43;99069.13;;;14.04;79.26
28921;BME280;16035;53.594;9.952;2023-10-31T04:38:43;99065.28;;;14.05;79.04
28921;BME280;16035;53.594;9.952;2023-10-31T04:40:43;99069.28;;;14.08;78.77
28921;BME280;16035;53.594;9.952;2023-10-31T04:42:46;99069.63;;;14.06;78.89
28921;BME280;16035;53.594;9.952;2023-10-31T04:44:47;99062.25;;;14.07;78.96
28921;BME280;16035;53.594;9.952;2023-10-31T04:46:47;99054.50;;;14.09;79.13
28921;BME280;16035;53.594;9.952;2023-10-31T04:48:47;99055.31;;;14.09;79.25
28921;BME280;16035;53.594;9.952;2023-10-31T04:50:48;99055.78;;;14.11;78.70
28921;BME280;16035;53.594;9.952;2023-10-31T04:52:48;99051.44;;;14.10;79.20
28921;BME280;16035;53.594;9.952;2023-10-31T04:54:48;99055.78;;;14.11;78.88
28921;BME280;16035;53.594;9.952;2023-10-31T04:56:49;99053.38;;;14.10;79.20
28921;BME280;16035;53.594;9.952;2023-10-31T04:58:49;99051.13;;;14.12;79.02
28921;BME280;16035;53.594;9.952;2023-10-31T05:00:49;99050.47;;;14.15;79.18
28921;BME280;16035;53.594;9.952;2023-10-31T05:02:50;99044.19;;;14.14;78.98
28921;BME280;16035;53.594;9.952;2023-10-31T05:04:50;99041.16;;;14.16;79.47
28921;BME280;16035;53.594;9.952;2023-10-31T05:06:51;99033.44;;;14.18;79.04
28921;BME280;16035;53.594;9.952;2023-10-31T05:08:51;99032.28;;;14.19;79.15
28921;BME280;16035;53.594;9.952;2023-10-31T05:10:51;99030.69;;;14.18;79.09
28921;BME280;16035;53.594;9.952;2023-10-31T05:12:52;99030.22;;;14.16;78.94
28921;BME280;16035;53.594;9.952;2023-10-31T05:14:53;99029.44;;;14.15;79.08
28921;BME280;16035;53.594;9.952;2023-10-31T05:16:53;99023.97;;;14.15;79.01
28921;BME280;16035;53.594;9.952;2023-10-31T05:18:53;99031.03;;;14.16;79.00
28921;BME280;16035;53.594;9.952;2023-10-31T05:20:54;99036.00;;;14.14;79.62
28921;BME280;16035;53.594;9.952;2023-10-31T05:22:54;99031.34;;;14.15;79.87
28921;BME280;16035;53.594;9.952;2023-10-31T05:24:54;99034.06;;;14.15;79.45
28921;BME280;16035;53.594;9.952;2023-10-31T05:26:55;99034.91;;;14.15;79.50
28921;BME280;16035;53.594;9.952;2023-10-31T05:28:57;99030.69;;;14.18;79.38
28921;BME280;16035;53.594;9.952;2023-10-31T05:30:57;99038.09;;;14.18;79.07
28921;BME280;16035;53.594;9.952;2023-10-31T05:32:58;99032.97;;;14.16;79.36
28921;BME280;16035;53.594;9.952;2023-10-31T05:34:58;99036.50;;;14.16;79.51
28921;BME280;16035;53.594;9.952;2023-10-31T05:36:58;99045.16;;;14.19;79.28
28921;BME280;16035;53.594;9.952;2023-10-31T05:38:58;99040.03;;;14.17;79.15
28921;BME280;16035;53.594;9.952;2023-10-31T05:40:59;99034.06;;;14.15;79.99
28921;BME280;16035;53.594;9.952;2023-10-31T05:42:59;99041.97;;;14.16;79.88
28921;BME280;16035;53.594;9.952;2023-10-31T05:44:59;99030.34;;;14.20;79.40
28921;BME280;16035;53.594;9.952;2023-10-31T05:47:00;99029.56;;;14.19;79.47
28921;BME280;16035;53.594;9.952;2023-10-31T05:49:00;99031.97;;;14.21;79.52
28921;BME280;16035;53.594;9.952;2023-10-31T05:51:00;99032.28;;;14.19;79.71
28921;BME280;16035;53.594;9.952;2023-10-31T05:53:01;99031.97;;;14.21;79.55
28921;BME280;16035;53.594;9.952;2023-10-31T05:55:01;99024.59;;;14.21;79.42
28921;BME280;16035;53.594;9.952;2023-10-31T05:57:02;99026.81;;;14.19;79.73
28921;BME280;16035;53.594;9.952;2023-10-31T05:59:02;99022.16;;;14.20;79.53
28921;BME280;16035;53.594;9.952;2023-10-31T06:01:02;99028.75;;;14.19;79.76
28921;BME280;16035;53.594;9.952;2023-10-31T06:03:03;99034.22;;;14.19;79.85
28921;BME280;16035;53.594;9.952;2023-10-31T06:05:04;99031.19;;;14.20;79.86
28921;BME280;16035;53.594;9.952;2023-10-31T06:07:05;99034.22;;;14.19;79.79
28921;BME280;16035;53.594;9.952;2023-10-31T06:09:05;99034.22;;;14.19;79.98
28921;BME280;16035;53.594;9.952;2023-10-31T06:11:06;99031.50;;;14.19;79.90
28921;BME280;16035;53.594;9.952;2023-10-31T06:13:07;99028.75;;;14.19;80.03
28921;BME280;16035;53.594;9.952;2023-10-31T06:15:07;99021.06;;;14.21;79.98
28921;BME280;16035;53.594;9.952;2023-10-31T06:17:08;99023.78;;;14.21;79.65
28921;BME280;16035;53.594;9.952;2023-10-31T06:19:08;99027.63;;;14.20;79.66
28921;BME280;16035;53.594;9.952;2023-10-31T06:21:09;99033.44;;;14.18;79.90
28921;BME280;16035;53.594;9.952;2023-10-31T06:23:09;99026.03;;;14.19;80.19
28921;BME280;16035;53.594;9.952;2023-10-31T06:25:09;99027.97;;;14.18;79.84
28921;BME280;16035;53.594;9.952;2023-10-31T06:27:10;99026.03;;;14.19;79.91
28921;BME280;16035;53.594;9.952;2023-10-31T06:29:10;99021.69;;;14.18;80.12
28921;BME280;16035;53.594;9.952;2023-10-31T06:31:11;99024.09;;;14.19;79.87
28921;BME280;16035;53.594;9.952;2023-10-31T06:33:11;99025.38;;;14.22;79.85
28921;BME280;16035;53.594;9.952;2023-10-31T06:35:12;99024.59;;;14.21;80.07
28921;BME280;16035;53.594;9.952;2023-10-31T06:37:12;99030.84;;;14.22;79.89
28921;BME280;16035;53.594;9.952;2023-10-31T06:39:12;99032.44;;;14.23;79.93
28921;BME280;16035;53.594;9.952;2023-10-31T06:41:13;99030.84;;;14.22;80.19
28921;BME280;16035;53.594;9.952;2023-10-31T06:43:13;99030.84;;;14.22;80.18
28921;BME280;16035;53.594;9.952;2023-10-31T06:45:14;99036.78;;;14.24;80.25
28921;BME280;16035;53.594;9.952;2023-10-31T06:47:14;99038.41;;;14.25;80.08
28921;BME280;16035;53.594;9.952;2023-10-31T06:49:14;99041.44;;;14.23;80.16
28921;BME280;16035;53.594;9.952;2023-10-31T06:51:15;99041.44;;;14.23;80.11
28921;BME280;16035;53.594;9.952;2023-10-31T06:53:15;99037.91;;;14.23;80.03
28921;BME280;16035;53.594;9.952;2023-10-31T06:55:15;99035.66;;;14.25;80.19
28921;BME280;16035;53.594;9.952;2023-10-31T06:57:16;99031.47;;;14.27;80.27
28921;BME280;16035;53.594;9.952;2023-10-31T06:59:17;99033.41;;;14.27;80.52
28921;BME280;16035;53.594;9.952;2023-10-31T07:01:17;99041.94;;;14.25;80.23
28921;BME280;16035;53.594;9.952;2023-10-31T07:03:18;99039.66;;;14.27;80.34
28921;BME280;16035;53.594;9.952;2023-10-31T07:05:18;99040.47;;;14.28;80.21
28921;BME280;16035;53.594;9.952;2023-10-31T07:07:20;99044.66;;;14.25;80.49
28921;BME280;16035;53.594;9.952;2023-10-31T07:09:20;99043.88;;;14.25;80.20
28921;BME280;16035;53.594;9.952;2023-10-31T07:11:21;99039.03;;;14.22;80.19
28921;BME280;16035;53.594;9.952;2023-10-31T07:13:21;99029.72;;;14.23;80.35
28921;BME280;16035;53.594;9.952;2023-10-31T07:15:21;99034.03;;;14.24;80.25
28921;BME280;16035;53.594;9.952;2023-10-31T07:17:22;99034.53;;;14.26;80.74
28921;BME280;16035;53.594;9.952;2023-10-31T07:19:22;99039.66;;;14.27;80.45
28921;BME280;16035;53.594;9.952;2023-10-31T07:21:22;99036.13;;;14.27;80.46
28921;BME280;16035;53.594;9.952;2023-10-31T07:23:22;99041.94;;;14.25;80.69
28921;BME280;16035;53.594;9.952;2023-10-31T07:25:23;99038.88;;;14.27;80.58
28921;BME280;16035;53.594;9.952;2023-10-31T07:27:23;99039.03;;;14.30;80.68
28921;BME280;16035;53.594;9.952;2023-10-31T07:29:23;99035.16;;;14.31;80.15
28921;BME280;16035;53.594;9.952;2023-10-31T07:31:24;99044.31;;;14.27;80.01
28921;BME280;16035;53.594;9.952;2023-10-31T07:33:24;99052.88;;;14.25;80.43
28921;BME280;16035;53.594;9.952;2023-10-31T07:35:24;99055.09;;;14.23;80.44
28921;BME280;16035;53.594;9.952;2023-10-31T07:37:25;99053.84;;;14.21;80.54
28921;BME280;16035;53.594;9.952;2023-10-31T07:39:25;99049.97;;;14.22;80.35
28921;BME280;16035;53.594;9.952;2023-10-31T07:41:25;99048.03;;;14.22;80.15
28921;BME280;16035;53.594;9.952;2023-10-31T07:43:26;99055.91;;;14.24;80.54
28921;BME280;16035;53.594;9.952;2023-10-31T07:45:26;99051.09;;;14.21;80.46
28921;BME280;16035;53.594;9.952;2023-10-31T07:47:26;99057.22;;;14.18;80.27
28921;BME280;16035;53.594;9.952;2023-10-31T07:49:27;99052.38;;;14.14;80.32
28921;BME280;16035;53.594;9.952;2023-10-31T07:51:27;99053.06;;;14.11;80.24
28921;BME280;16035;53.594;9.952;2023-10-31T07:53:27;99056.91;;;14.10;80.21
28921;BME280;16035;53.594;9.952;2023-10-31T07:55:28;99053.72;;;14.00;79.45
28921;BME280;16035;53.594;9.952;2023-10-31T07:57:28;99057.44;;;13.86;79.64
28921;BME280;16035;53.594;9.952;2023-10-31T07:59:28;99055.53;;;13.78;79.51
28921;BME280;16035;53.594;9.952;2023-10-31T08:01:29;99057.16;;;13.71;79.59
28921;BME280;16035;53.594;9.952;2023-10-31T08:03:29;99061.66;;;13.67;79.42
28921;BME280;16035;53.594;9.952;2023-10-31T08:05:29;99058.59;;;13.59;79.18
28921;BME280;16035;53.594;9.952;2023-10-31T08:07:30;99062.91;;;13.52;79.46
28921;BME280;16035;53.594;9.952;2023-10-31T08:09:30;99064.03;;;13.42;79.10
28921;BME280;16035;53.594;9.952;2023-10-31T08:11:30;99056.50;;;13.39;79.28
28921;BME280;16035;53.594;9.952;2023-10-31T08:13:31;99049.94;;;13.40;79.81
28921;BME280;16035;53.594;9.952;2023-10-31T08:15:32;99056.66;;;13.43;79.86
28921;BME280;16035;53.594;9.952;2023-10-31T08:17:32;99057.16;;;13.45;79.88
28921;BME280;16035;53.594;9.952;2023-10-31T08:19:32;99054.44;;;13.45;79.37
28921;BME280;16035;53.594;9.952;2023-10-31T08:21:33;99051.19;;;13.43;79.22
28921;BME280;16035;53.594;9.952;2023-10-31T08:23:36;99051.88;;;13.39;79.62
28921;BME280;16035;53.594;9.952;2023-10-31T08:25:36;99050.25;;;13.38;79.61
28921;BME280;16035;53.594;9.952;2023-10-31T08:27:37;99055.56;;;13.35;79.58
28921;BME280;16035;53.594;9.952;2023-10-31T08:29:37;99055.69;;;13.30;79.53
28921;BME280;16035;53.594;9.952;2023-10-31T08:31:37;99054.09;;;13.29;79.76
28921;BME280;16035;53.594;9.952;2023-10-31T08:33:38;99056.81;;;13.29;79.50
28921;BME280;16035;53.594;9.952;2023-10-31T08:35:38;99052.81;;;13.26;79.61
28921;BME280;16035;53.594;9.952;2023-10-31T08:37:39;99052.81;;;13.26;79.83
28921;BME280;16035;53.594;9.952;2023-10-31T08:39:39;99054.09;;;13.29;79.69
28921;BME280;16035;53.594;9.952;2023-10-31T08:41:56;99057.16;;;13.27;79.53
28921;BME280;16035;53.594;9.952;2023-10-31T08:43:56;99053.63;;;13.27;79.33
28921;BME280;16035;53.594;9.952;2023-10-31T08:45:58;99060.19;;;13.26;79.22
28921;BME280;16035;53.594;9.952;2023-10-31T08:47:58;99061.66;;;13.32;79.02
28921;BME280;16035;53.594;9.952;2023-10-31T08:49:59;99060.69;;;13.36;79.28
28921;BME280;16035;53.594;9.952;2023-10-31T08:51:59;99065.50;;;13.39;79.40
28921;BME280;16035;53.594;9.952;2023-10-31T08:54:02;99061.94;;;13.39;79.16
28921;BME280;16035;53.594;9.952;2023-10-31T08:56:02;99066.13;;;13.36;79.19
28921;BME280;16035;53.594;9.952;2023-10-31T08:58:03;99072.72;;;13.35;79.22
28921;BME280;16035;53.594;9.952;2023-10-31T09:00:04;99066.94;;;13.37;79.59
28921;BME280;16035;53.594;9.952;2023-10-31T09:02:05;99078.97;;;13.36;79.02
28921;BME280;16035;53.594;9.952;2023-10-31T09:04:05;99076.09;;;13.32;78.74
28921;BME280;16035;53.594;9.952;2023-10-31T09:06:06;99078.97;;;13.27;78.86
28921;BME280;16035;53.594;9.952;2023-10-31T09:08:06;99078.97;;;13.27;79.54
28921;BME280;16035;53.594;9.952;2023-10-31T09:10:07;99072.22;;;13.33;79.68
28921;BME280;16035;53.594;9.952;2023-10-31T09:12:07;99085.06;;;13.33;78.96
28921;BME280;16035;53.594;9.952;2023-10-31T09:14:08;99090.69;;;13.28;79.00
28921;BME280;16035;53.594;9.952;2023-10-31T09:16:08;99088.75;;;13.28;79.31
28921;BME280;16035;53.594;9.952;2023-10-31T09:18:09;99099.84;;;13.32;79.48
28921;BME280;16035;53.594;9.952;2023-10-31T09:20:10;99113.78;;;13.30;78.97
28921;BME280;16035;53.594;9.952;2023-10-31T09:22:11;99114.44;;;13.27;79.68
28921;BME280;16035;53.594;9.952;2023-10-31T09:24:11;99119.09;;;13.27;79.26
28921;BME280;16035;53.594;9.952;2023-10-31T09:26:11;99128.38;;;13.26;79.50
28921;BME280;16035;53.594;9.952;2023-10-31T09:28:12;99148.28;;;13.26;79.08
28921;BME280;16035;53.594;9.952;2023-10-31T09:30:12;99161.88;;;13.18;79.00
28921;BME280;16035;53.594;9.952;2023-10-31T09:32:14;99171.00;;;13.13;79.16
28921;BME280;16035;53.594;9.952;2023-10-31T09:34:15;99181.75;;;13.09;79.08
28921;BME280;16035;53.594;9.952;2023-10-31T09:36:15;99192.63;;;13.01;79.18
28921;BME280;16035;53.594;9.952;2023-10-31T09:38:15;99194.38;;;12.97;78.87
28921;BME280;16035;53.594;9.952;2023-10-31T09:40:16;99211.28;;;12.85;78.98
28921;BME280;16035;53.594;9.952;2023-10-31T09:42:16;99214.31;;;12.75;79.02
28921;BME280;16035;53.594;9.952;2023-10-31T09:44:16;99223.41;;;12.70;79.29
28921;BME280;16035;53.594;9.952;2023-10-31T09:46:17;99234.94;;;12.67;79.10
28921;BME280;16035;53.594;9.952;2023-10-31T09:48:19;99253.00;;;12.63;79.46
28921;BME280;16035;53.594;9.952;2023-10-31T09:50:19;99260.03;;;12.55;79.26
28921;BME280;16035;53.594;9.952;2023-10-31T09:52:20;99273.94;;;12.54;79.35
28921;BME280;16035;53.594;9.952;2023-10-31T09:54:20;99276.81;;;12.49;79.34
28921;BME280;16035;53.594;9.952;2023-10-31T09:56:21;99291.78;;;12.37;79.14
28921;BME280;16035;53.594;9.952;2023-10-31T09:58:22;99310.28;;;12.27;79.17
28921;BME280;16035;53.594;9.952;2023-10-31T10:00:28;99328.78;;;12.16;79.03
28921;BME280;16035;53.594;9.952;2023-10-31T10:02:29;99313.56;;;12.15;79.38
28921;BME280;16035;53.594;9.952;2023-10-31T10:04:30;99335.63;;;12.13;79.52
28921;BME280;16035;53.594;9.952;2023-10-31T10:06:31;99343.09;;;12.08;79.26
28921;BME280;16035;53.594;9.952;2023-10-31T10:08:31;99348.97;;;12.01;79.47
28921;BME280;16035;53.594;9.952;2023-10-31T10:10:33;99355.03;;;11.98;79.05
28921;BME280;16035;53.594;9.952;2023-10-31T10:12:34;99360.56;;;11.93;79.20
28921;BME280;16035;53.594;9.952;2023-10-31T10:14:34;99368.94;;;11.97;79.74
28921;BME280;16035;53.594;9.952;2023-10-31T10:16:35;99376.00;;;11.98;79.59
28921;BME280;16035;53.594;9.952;2023-10-31T10:18:36;99382.56;;;11.97;79.97
28921;BME280;16035;53.594;9.952;2023-10-31T10:21:00;99398.06;;;11.96;79.72
28921;BME280;16035;53.594;9.952;2023-10-31T10:23:03;99409.69;;;12.02;79.62
28921;BME280;16035;53.594;9.952;2023-10-31T10:25:06;99418.94;;;12.01;79.71
28921;BME280;16035;53.594;9.952;2023-10-31T10:27:08;99422.38;;;12.06;79.80
28921;BME280;16035;53.594;9.952;2023-10-31T10:29:08;99435.47;;;12.04;79.48
28921;BME280;16035;53.594;9.952;2023-10-31T10:31:09;99438.50;;;12.03;79.49
28921;BME280;16035;53.594;9.952;2023-10-31T10:33:09;99455.88;;;12.07;79.62
28921;BME280;16035;53.594;9.952;2023-10-31T10:35:09;99452.63;;;12.05;79.61
28921;BME280;16035;53.594;9.952;2023-10-31T10:37:10;99454.44;;;12.09;79.89
28921;BME280;16035;53.594;9.952;2023-10-31T10:39:10;99453.84;;;12.12;79.77